Time;durP1;ratioP1;P1;durP2;ratioP2;P2;SDS_P1;SDS_P2;PMS_P1;PMS_P2;Temp;Humidity;BMP_temperature;BMP_pressure;BME280_temperature;BME280_humidity;BME280_pressure;Samples;Min_cycle;Max_cycle;Signal;HPM_P1;HPM_P2
2020/12/06 00:01:43;;;;;;;2.50;2.30;;;17.30;53.10;;;;;;5023109;28;20224;-59
2020/12/06 00:04:10;;;;;;;4.07;2.43;;;17.20;53.10;;;;;;5017746;28;20234;-58
2020/12/06 00:06:37;;;;;;;5.13;2.80;;;17.30;53.20;;;;;;5027503;28;20273;-58
2020/12/06 00:09:06;;;;;;;3.00;2.30;;;17.20;53.10;;;;;;5016422;28;20222;-58
2020/12/06 00:11:33;;;;;;;3.43;2.47;;;17.20;53.20;;;;;;5027013;28;20242;-58
2020/12/06 00:14:00;;;;;;;3.43;2.23;;;17.20;53.30;;;;;;5012881;28;20239;-59
2020/12/06 00:16:28;;;;;;;3.23;2.73;;;17.20;53.30;;;;;;5025954;28;20230;-59
2020/12/06 00:18:54;;;;;;;4.97;2.37;;;17.20;53.30;;;;;;5011538;28;20231;-58
2020/12/06 00:21:22;;;;;;;3.07;2.20;;;17.20;53.30;;;;;;5025765;28;20233;-58
2020/12/06 00:23:49;;;;;;;2.87;2.40;;;17.20;53.30;;;;;;5019220;28;20719;-58
2020/12/06 00:26:23;;;;;;;3.43;2.40;;;17.10;53.20;;;;;;5027773;28;20238;-58
2020/12/06 00:28:50;;;;;;;3.13;2.43;;;17.10;53.30;;;;;;5019747;28;20230;-58
2020/12/06 00:31:17;;;;;;;2.53;2.33;;;17.10;53.30;;;;;;5025465;28;20281;-57
2020/12/06 00:33:44;;;;;;;2.40;2.20;;;17.10;53.30;;;;;;5026838;28;20280;-58
2020/12/06 00:36:12;;;;;;;3.60;2.93;;;17.10;53.30;;;;;;5019379;28;20215;-58
2020/12/06 00:38:39;;;;;;;4.03;2.43;;;17.10;53.40;;;;;;5021003;28;20632;-58
2020/12/06 00:41:09;;;;;;;2.60;2.30;;;17.10;53.40;;;;;;5020387;28;20226;-58
2020/12/06 00:43:35;;;;;;;3.97;2.70;;;17.10;53.40;;;;;;5017606;28;20276;-58
2020/12/06 00:46:02;;;;;;;2.90;2.40;;;17.00;53.40;;;;;;5018627;28;20568;-58
2020/12/06 00:48:29;;;;;;;2.37;2.17;;;17.00;53.40;;;;;;5014350;28;20223;-58
2020/12/06 00:50:55;;;;;;;2.87;2.57;;;17.00;53.50;;;;;;5017641;28;20765;-58
2020/12/06 00:53:21;;;;;;;2.97;2.60;;;17.00;53.50;;;;;;5015422;28;20277;-58
2020/12/06 00:55:52;;;;;;;2.77;2.30;;;17.00;53.50;;;;;;5020200;28;20214;-58
2020/12/06 00:58:21;;;;;;;2.73;2.40;;;17.00;53.60;;;;;;5013870;28;20238;-58
2020/12/06 01:00:47;;;;;;;3.00;2.40;;;17.00;53.60;;;;;;5018481;28;20253;-58
2020/12/06 01:03:14;;;;;;;2.30;2.10;;;17.00;53.60;;;;;;5015411;28;20234;-58
2020/12/06 01:05:40;;;;;;;3.20;2.40;;;17.00;53.70;;;;;;5017094;28;20935;-58
2020/12/06 01:08:06;;;;;;;2.90;2.50;;;16.90;53.70;;;;;;5026004;28;20238;-58
2020/12/06 01:10:32;;;;;;;3.90;2.43;;;16.90;53.70;;;;;;5018099;28;20281;-58
2020/12/06 01:12:59;;;;;;;3.03;2.47;;;16.90;53.80;;;;;;5025610;28;20230;-58
2020/12/06 01:15:26;;;;;;;2.60;2.40;;;16.90;53.80;;;;;;5024233;28;20564;-58
2020/12/06 01:17:53;;;;;;;2.90;2.50;;;16.90;53.80;;;;;;5019166;28;20257;-58
2020/12/06 01:20:19;;;;;;;2.90;2.70;;;16.90;53.80;;;;;;5024147;28;20230;-58
2020/12/06 01:22:46;;;;;;;3.40;2.67;;;16.90;53.80;;;;;;5018289;28;20227;-58
2020/12/06 01:25:12;;;;;;;3.77;2.50;;;16.80;53.80;;;;;;5025729;28;20227;-58
2020/12/06 01:27:38;;;;;;;3.13;2.83;;;16.90;53.90;;;;;;5018715;28;20246;-57
2020/12/06 01:30:07;;;;;;;3.53;2.80;;;16.90;53.90;;;;;;5025502;28;20682;-59
2020/12/06 01:32:33;;;;;;;2.93;2.50;;;16.80;53.80;;;;;;5016687;28;20394;-59
2020/12/06 01:35:01;;;;;;;4.17;2.50;;;16.80;53.90;;;;;;5026351;28;20222;-59
2020/12/06 01:37:28;;;;;;;3.17;2.60;;;16.80;53.90;;;;;;5016571;28;20214;-58
2020/12/06 01:39:54;;;;;;;2.80;2.50;;;16.80;54.00;;;;;;5026458;28;20234;-58
2020/12/06 01:42:20;;;;;;;2.90;2.57;;;16.80;54.00;;;;;;4999090;28;20401;-59
2020/12/06 01:44:47;;;;;;;2.97;2.67;;;16.80;54.00;;;;;;5006640;28;20215;-57
2020/12/06 01:47:13;;;;;;;2.37;2.17;;;16.80;54.00;;;;;;5021322;28;20231;-59
2020/12/06 01:49:40;;;;;;;2.77;2.57;;;16.80;54.00;;;;;;5020193;28;20626;-57
2020/12/06 01:52:07;;;;;;;3.33;2.60;;;16.80;54.00;;;;;;5023032;28;20227;-57
2020/12/06 01:54:34;;;;;;;2.90;2.60;;;16.70;54.00;;;;;;5022834;28;20215;-58
2020/12/06 01:57:03;;;;;;;3.50;2.60;;;16.70;54.10;;;;;;5027137;28;20226;-59
2020/12/06 01:59:29;;;;;;;2.70;2.50;;;16.70;54.10;;;;;;5017973;28;20250;-57
2020/12/06 02:02:01;;;;;;;2.70;2.50;;;16.70;54.10;;;;;;5014912;28;20223;-59
2020/12/06 02:04:29;;;;;;;2.70;2.50;;;16.70;54.10;;;;;;5016137;28;20308;-59
2020/12/06 02:06:56;;;;;;;4.00;2.90;;;16.70;54.20;;;;;;5019885;28;20237;-57
2020/12/06 02:09:24;;;;;;;3.30;2.80;;;16.70;54.20;;;;;;5019697;28;20777;-59
2020/12/06 02:11:50;;;;;;;3.20;2.83;;;16.70;54.20;;;;;;5020126;28;20226;-58
2020/12/06 02:14:18;;;;;;;2.87;2.67;;;16.70;54.20;;;;;;5022245;28;20234;-58
2020/12/06 02:16:45;;;;;;;2.80;2.50;;;16.70;54.20;;;;;;5021338;28;20230;-58
2020/12/06 02:19:11;;;;;;;3.10;2.43;;;16.60;54.20;;;;;;5019697;28;20415;-59
2020/12/06 02:21:40;;;;;;;2.80;2.60;;;16.60;54.20;;;;;;5031644;28;20508;-59
2020/12/06 02:24:07;;;;;;;3.10;2.80;;;16.60;54.30;;;;;;5019907;28;20675;-57
2020/12/06 02:26:40;;;;;;;3.03;2.70;;;16.60;54.30;;;;;;5030295;28;20258;-57
2020/12/06 02:29:07;;;;;;;2.83;2.40;;;16.60;54.20;;;;;;5018507;28;20238;-57
2020/12/06 02:31:34;;;;;;;3.40;2.83;;;16.60;54.30;;;;;;5022760;28;20242;-58
2020/12/06 02:34:00;;;;;;;3.03;2.50;;;16.60;54.40;;;;;;5020398;28;20348;-60
2020/12/06 02:36:27;;;;;;;3.43;2.60;;;16.60;54.30;;;;;;5026346;28;20230;-58
2020/12/06 02:38:53;;;;;;;4.90;3.03;;;16.60;54.30;;;;;;5027371;28;20270;-58
2020/12/06 02:41:20;;;;;;;3.20;2.50;;;16.60;54.30;;;;;;5014140;28;20277;-57
2020/12/06 02:43:46;;;;;;;2.80;2.50;;;16.60;54.30;;;;;;5025317;28;20230;-58
2020/12/06 02:46:12;;;;;;;3.37;2.90;;;16.60;54.40;;;;;;5013250;28;20703;-58
2020/12/06 02:48:38;;;;;;;2.77;2.50;;;16.60;54.40;;;;;;5025427;28;20249;-57
2020/12/06 02:51:05;;;;;;;2.93;2.63;;;16.60;54.40;;;;;;5020292;28;20670;-57
2020/12/06 02:53:31;;;;;;;3.40;2.90;;;16.60;54.40;;;;;;5028561;28;20231;-58
2020/12/06 02:55:58;;;;;;;3.30;2.70;;;16.50;54.40;;;;;;5021849;28;20227;-57
2020/12/06 02:58:24;;;;;;;3.70;2.57;;;16.50;54.40;;;;;;5028809;28;20228;-58
2020/12/06 03:00:51;;;;;;;2.90;2.67;;;16.50;54.40;;;;;;5020278;28;20242;-58
2020/12/06 03:03:17;;;;;;;2.67;2.47;;;16.50;54.40;;;;;;5027183;28;20234;-58
2020/12/06 03:05:43;;;;;;;3.07;2.57;;;16.50;54.40;;;;;;5021703;28;20710;-58
2020/12/06 03:08:10;;;;;;;3.40;2.63;;;16.50;54.40;;;;;;5028278;28;20231;-59
2020/12/06 03:10:36;;;;;;;3.13;2.80;;;16.50;54.40;;;;;;5019215;28;20292;-57
2020/12/06 03:13:02;;;;;;;2.67;2.47;;;16.50;54.40;;;;;;5026524;28;20223;-58
2020/12/06 03:15:28;;;;;;;3.10;2.80;;;16.50;54.40;;;;;;5024803;28;20253;-57
2020/12/06 03:17:54;;;;;;;3.07;2.80;;;16.50;54.40;;;;;;5002793;28;20907;-57
2020/12/06 03:20:20;;;;;;;3.20;2.63;;;16.50;54.40;;;;;;5022573;28;20231;-59
2020/12/06 03:22:47;;;;;;;3.07;2.77;;;16.50;54.40;;;;;;5018629;28;20598;-59
2020/12/06 03:25:13;;;;;;;2.80;2.60;;;16.50;54.40;;;;;;5027754;28;20713;-59
2020/12/06 03:27:39;;;;;;;2.83;2.50;;;16.50;54.40;;;;;;5018214;28;20234;-59
2020/12/06 03:30:05;;;;;;;3.80;2.70;;;16.50;54.50;;;;;;5027429;28;20227;-59
2020/12/06 03:32:31;;;;;;;2.93;2.53;;;16.50;54.50;;;;;;5019658;28;20274;-57
2020/12/06 03:34:58;;;;;;;3.60;2.27;;;16.50;54.50;;;;;;5030475;28;20242;-57
2020/12/06 03:37:24;;;;;;;3.07;2.73;;;16.50;54.50;;;;;;5018846;28;20227;-59
2020/12/06 03:39:50;;;;;;;2.93;2.63;;;16.50;54.50;;;;;;5021798;28;20231;-56
2020/12/06 03:42:16;;;;;;;2.70;2.10;;;16.40;54.50;;;;;;5018971;28;20236;-57
2020/12/06 03:44:43;;;;;;;2.73;2.53;;;16.40;54.50;;;;;;5032639;28;20231;-57
2020/12/06 03:47:09;;;;;;;3.17;2.60;;;16.40;54.50;;;;;;5012204;28;20231;-58
2020/12/06 03:49:35;;;;;;;2.73;2.53;;;16.40;54.60;;;;;;5025343;28;20646;-57
2020/12/06 03:52:02;;;;;;;4.53;2.80;;;16.40;54.50;;;;;;5026923;28;20233;-57
2020/12/06 03:54:28;;;;;;;3.17;2.53;;;16.40;54.60;;;;;;5020455;28;20235;-57
2020/12/06 03:56:55;;;;;;;3.57;2.90;;;16.40;54.60;;;;;;5028230;28;20211;-58
2020/12/06 03:59:21;;;;;;;2.70;2.50;;;16.40;54.60;;;;;;5021066;28;20242;-59
2020/12/06 04:01:47;;;;;;;3.83;2.90;;;16.40;54.60;;;;;;5026089;28;20234;-59
2020/12/06 04:04:13;;;;;;;2.83;2.60;;;16.40;54.60;;;;;;5019260;28;20258;-58
2020/12/06 04:06:39;;;;;;;2.47;2.27;;;16.40;54.60;;;;;;5026131;28;20226;-58
2020/12/06 04:09:06;;;;;;;3.50;2.70;;;16.40;54.70;;;;;;5031010;28;20238;-58
2020/12/06 04:11:32;;;;;;;2.80;2.47;;;16.40;54.60;;;;;;5029183;28;20230;-59
2020/12/06 04:13:58;;;;;;;3.20;2.83;;;16.40;54.60;;;;;;5018172;28;20616;-58
2020/12/06 04:16:25;;;;;;;2.80;2.60;;;16.30;54.60;;;;;;5027209;28;20233;-58
2020/12/06 04:18:51;;;;;;;2.93;2.50;;;16.40;54.60;;;;;;5021629;28;20285;-58
2020/12/06 04:21:17;;;;;;;3.60;2.30;;;16.30;54.60;;;;;;5026738;28;20575;-58
2020/12/06 04:23:43;;;;;;;3.90;2.60;;;16.30;54.60;;;;;;5020092;28;20324;-58
2020/12/06 04:26:09;;;;;;;5.00;2.53;;;16.30;54.60;;;;;;5026580;28;20242;-59
2020/12/06 04:28:36;;;;;;;3.07;2.70;;;16.30;54.60;;;;;;5024711;28;20614;-58
2020/12/06 04:31:02;;;;;;;3.07;2.67;;;16.40;54.70;;;;;;5022584;28;20227;-58
2020/12/06 04:33:28;;;;;;;2.90;2.60;;;16.30;54.60;;;;;;5026987;28;20223;-59
2020/12/06 04:35:59;;;;;;;3.40;2.77;;;16.30;54.70;;;;;;5019073;28;20235;-58
2020/12/06 04:38:26;;;;;;;3.77;2.80;;;16.30;54.70;;;;;;5014124;28;20393;-58
2020/12/06 04:40:52;;;;;;;4.77;2.90;;;16.30;54.80;;;;;;5019074;28;20584;-57
2020/12/06 04:43:19;;;;;;;3.13;2.70;;;16.30;54.70;;;;;;5027618;28;20241;-59
2020/12/06 04:45:47;;;;;;;2.57;2.37;;;16.30;54.70;;;;;;5019572;28;20226;-59
2020/12/06 04:48:27;;;;;;;3.17;2.87;;;16.30;54.70;;;;;;5014153;28;20240;-58
2020/12/06 04:51:00;;;;;;;2.97;2.63;;;16.30;54.80;;;;;;5005559;28;21064;-59
2020/12/06 04:53:28;;;;;;;3.60;2.80;;;16.30;54.80;;;;;;5028177;28;20238;-59
2020/12/06 04:56:01;;;;;;;3.07;2.30;;;16.30;54.70;;;;;;5022469;28;20221;-59
2020/12/06 04:58:29;;;;;;;3.20;2.90;;;16.30;54.80;;;;;;5015764;28;20239;-58
2020/12/06 05:00:55;;;;;;;3.33;2.57;;;16.20;54.80;;;;;;5015773;28;20227;-58
2020/12/06 05:03:24;;;;;;;2.67;2.47;;;16.20;54.80;;;;;;5007907;28;20231;-59
2020/12/06 05:05:53;;;;;;;3.73;2.80;;;16.20;54.80;;;;;;4995896;28;21075;-57
2020/12/06 05:08:21;;;;;;;3.07;2.60;;;16.20;54.80;;;;;;5012384;28;20218;-57
2020/12/06 05:10:48;;;;;;;2.77;2.57;;;16.20;54.80;;;;;;5000643;28;20278;-59
2020/12/06 05:13:16;;;;;;;5.70;2.60;;;16.20;54.80;;;;;;5020247;28;20215;-58
2020/12/06 05:15:44;;;;;;;2.90;2.53;;;16.20;54.80;;;;;;5019426;28;20218;-56
2020/12/06 05:18:10;;;;;;;2.87;2.57;;;16.20;54.80;;;;;;5018858;28;21376;-58
2020/12/06 05:20:37;;;;;;;2.60;2.40;;;16.20;54.80;;;;;;5013801;28;20220;-56
2020/12/06 05:23:03;;;;;;;3.17;2.67;;;16.20;55.50;;;;;;5011401;28;20234;-58
2020/12/06 05:25:30;;;;;;;3.20;2.57;;;16.20;54.90;;;;;;5023745;28;20231;-59
2020/12/06 05:27:56;;;;;;;2.90;2.50;;;16.20;55.00;;;;;;4998265;28;20235;-57
2020/12/06 05:30:23;;;;;;;2.90;2.63;;;16.10;55.40;;;;;;5007110;28;20740;-57
2020/12/06 05:32:49;;;;;;;2.53;2.33;;;16.10;54.90;;;;;;4997488;28;20223;-58
2020/12/06 05:35:18;;;;;;;2.80;2.47;;;16.20;54.90;;;;;;5007446;28;20219;-59
2020/12/06 05:37:44;;;;;;;2.87;2.40;;;16.20;55.00;;;;;;5003305;28;20219;-58
2020/12/06 05:40:18;;;;;;;2.90;2.60;;;16.20;55.00;;;;;;5006784;28;20220;-58
2020/12/06 05:42:46;;;;;;;2.70;2.50;;;16.20;55.00;;;;;;5004032;28;20235;-59
2020/12/06 05:45:12;;;;;;;2.60;2.40;;;16.20;55.00;;;;;;5006568;28;20242;-58
2020/12/06 05:47:39;;;;;;;4.00;2.20;;;16.20;55.00;;;;;;5021463;28;20695;-58
2020/12/06 05:50:06;;;;;;;4.10;2.60;;;16.20;55.10;;;;;;5018859;28;20232;-59
2020/12/06 05:52:34;;;;;;;2.57;2.37;;;16.20;55.00;;;;;;5000888;28;20227;-58
2020/12/06 05:55:01;;;;;;;2.57;2.37;;;16.10;55.00;;;;;;5010742;28;20285;-58
2020/12/06 05:57:42;;;;;;;3.10;2.80;;;16.20;55.10;;;;;;5018990;28;21940;-59
2020/12/06 06:00:09;;;;;;;3.40;3.10;;;16.20;55.10;;;;;;5025194;28;20230;-59
2020/12/06 06:02:36;;;;;;;2.87;2.57;;;16.20;55.20;;;;;;5024893;28;20728;-58
2020/12/06 06:05:04;;;;;;;2.70;2.37;;;16.20;55.20;;;;;;5023021;28;20219;-58
2020/12/06 06:07:31;;;;;;;3.00;2.70;;;16.10;55.10;;;;;;5028661;28;20230;-58
2020/12/06 06:10:04;;;;;;;2.97;2.53;;;16.20;55.20;;;;;;5020899;28;20227;-58
2020/12/06 06:12:32;;;;;;;3.17;2.87;;;16.20;55.20;;;;;;5030463;28;20505;-57
2020/12/06 06:15:01;;;;;;;3.03;2.73;;;16.20;55.20;;;;;;5021695;28;20229;-58
2020/12/06 06:17:29;;;;;;;3.00;2.60;;;16.10;55.10;;;;;;5028077;28;20223;-58
2020/12/06 06:19:57;;;;;;;2.97;2.60;;;16.10;55.10;;;;;;5021172;28;20778;-58
2020/12/06 06:22:45;;;;;;;2.50;2.30;;;16.10;55.10;;;;;;5029066;28;20637;-58
2020/12/06 06:25:12;;;;;;;4.50;2.50;;;16.10;55.10;;;;;;5019341;28;20724;-58
2020/12/06 06:27:40;;;;;;;2.97;2.67;;;16.10;55.10;;;;;;5027968;28;20266;-58
2020/12/06 06:30:07;;;;;;;3.17;2.67;;;16.10;55.10;;;;;;5019012;28;20230;-57
2020/12/06 06:32:38;;;;;;;2.70;2.37;;;16.10;55.10;;;;;;5027580;28;20998;-58
2020/12/06 06:35:06;;;;;;;2.83;2.53;;;16.10;55.10;;;;;;5020968;28;20235;-58
2020/12/06 06:37:35;;;;;;;3.30;2.77;;;16.10;55.10;;;;;;5027400;28;20237;-58
2020/12/06 06:40:04;;;;;;;3.37;3.00;;;16.10;55.10;;;;;;5011354;28;20652;-58
2020/12/06 06:42:31;;;;;;;3.77;2.83;;;16.10;55.10;;;;;;5019331;28;20288;-57
2020/12/06 06:45:12;;;;;;;3.80;3.20;;;16.10;55.00;;;;;;5008840;28;20221;-57
2020/12/06 06:47:42;;;;;;;3.80;3.07;;;16.10;55.00;;;;;;5009139;28;20694;-58
2020/12/06 06:50:12;;;;;;;3.17;2.87;;;16.10;55.00;;;;;;5000228;28;22047;-58
2020/12/06 06:52:41;;;;;;;3.43;3.13;;;16.10;55.00;;;;;;5012241;28;21203;-58
2020/12/06 06:55:08;;;;;;;3.70;3.30;;;16.10;55.10;;;;;;5000372;28;20239;-56
2020/12/06 06:57:34;;;;;;;2.70;2.50;;;16.10;55.00;;;;;;5007962;28;20915;-59
2020/12/06 07:00:03;;;;;;;2.63;2.43;;;16.10;55.00;;;;;;4997397;28;20802;-58
2020/12/06 07:02:42;;;;;;;3.30;3.00;;;16.10;55.00;;;;;;5027191;28;20733;-56
2020/12/06 07:05:11;;;;;;;4.83;2.90;;;16.10;54.90;;;;;;5006140;28;20227;-57
2020/12/06 07:07:44;;;;;;;3.33;2.90;;;16.10;54.90;;;;;;5023933;28;20230;-58
2020/12/06 07:10:15;;;;;;;3.57;3.20;;;16.10;54.90;;;;;;5026575;28;20853;-58
2020/12/06 07:12:51;;;;;;;3.40;3.10;;;16.10;54.90;;;;;;5019696;28;20237;-57
2020/12/06 07:15:26;;;;;;;3.23;2.97;;;16.00;54.90;;;;;;5029614;28;20896;-56
2020/12/06 07:17:57;;;;;;;3.30;3.00;;;16.00;54.90;;;;;;5033638;28;20232;-57
2020/12/06 07:20:33;;;;;;;3.20;2.90;;;16.00;54.80;;;;;;5031170;28;20227;-56
2020/12/06 07:23:05;;;;;;;3.43;3.03;;;16.00;54.80;;;;;;5009264;28;20244;-57
2020/12/06 07:25:39;;;;;;;3.10;2.87;;;16.00;54.90;;;;;;5031859;28;20222;-56
2020/12/06 07:28:09;;;;;;;2.70;2.50;;;16.10;54.80;;;;;;5013593;28;20845;-59
2020/12/06 07:30:47;;;;;;;3.50;2.70;;;16.00;54.80;;;;;;5029624;28;20238;-56
2020/12/06 07:33:14;;;;;;;2.97;2.67;;;16.00;54.80;;;;;;5020749;28;20233;-58
2020/12/06 07:35:41;;;;;;;3.43;3.13;;;16.00;54.80;;;;;;5033398;28;20233;-57
2020/12/06 07:38:15;;;;;;;3.20;2.90;;;16.00;54.90;;;;;;5018553;28;20646;-56
2020/12/06 07:40:41;;;;;;;4.63;3.27;;;16.00;54.80;;;;;;5006639;28;20790;-57
2020/12/06 07:43:12;;;;;;;3.07;2.77;;;16.00;54.80;;;;;;5011397;28;20226;-56
2020/12/06 07:45:39;;;;;;;3.40;3.10;;;16.00;54.80;;;;;;5027362;28;20227;-56
2020/12/06 07:48:06;;;;;;;2.77;2.57;;;16.00;54.80;;;;;;5006116;28;20277;-58
2020/12/06 07:50:32;;;;;;;3.30;2.90;;;16.00;54.80;;;;;;5007744;28;20234;-58
2020/12/06 07:53:02;;;;;;;2.93;2.70;;;16.00;54.80;;;;;;4995968;28;20270;-57
2020/12/06 07:55:28;;;;;;;3.17;2.87;;;16.00;54.80;;;;;;5007723;28;20627;-58
2020/12/06 07:57:57;;;;;;;3.40;2.93;;;16.10;54.90;;;;;;5006548;28;20234;-58
2020/12/06 08:00:37;;;;;;;3.63;3.27;;;16.00;54.80;;;;;;5006620;28;20223;-58
2020/12/06 08:03:05;;;;;;;3.57;3.13;;;16.00;54.80;;;;;;5017354;28;20234;-59
2020/12/06 08:05:40;;;;;;;3.30;3.00;;;16.00;54.70;;;;;;5021583;28;20257;-56
2020/12/06 08:08:20;;;;;;;3.23;2.93;;;16.00;54.70;;;;;;5017395;28;20922;-57
2020/12/06 08:10:54;;;;;;;3.43;3.00;;;16.00;54.70;;;;;;5004034;28;20762;-56
2020/12/06 08:13:21;;;;;;;2.97;2.67;;;16.00;54.70;;;;;;4995524;28;20695;-58
2020/12/06 08:15:47;;;;;;;3.10;2.80;;;16.00;54.80;;;;;;5007030;28;20234;-56
2020/12/06 08:18:15;;;;;;;3.43;3.13;;;16.00;54.70;;;;;;5008463;28;20237;-56
2020/12/06 08:20:54;;;;;;;3.43;3.10;;;16.00;54.80;;;;;;5001001;28;20207;-56
2020/12/06 08:23:36;;;;;;;3.70;3.40;;;16.00;54.70;;;;;;4995507;28;20298;-57
2020/12/06 08:26:04;;;;;;;3.73;3.40;;;16.00;54.70;;;;;;5006458;28;20216;-56
2020/12/06 08:28:30;;;;;;;4.33;3.60;;;16.00;54.70;;;;;;5025036;28;20234;-56
2020/12/06 08:30:57;;;;;;;4.30;2.97;;;16.00;54.50;;;;;;5018701;28;20226;-57
2020/12/06 08:33:28;;;;;;;4.17;3.23;;;16.00;54.60;;;;;;5027114;28;20253;-57
2020/12/06 08:35:59;;;;;;;4.37;3.07;;;16.00;54.50;;;;;;5017825;28;20222;-56
2020/12/06 08:38:26;;;;;;;3.73;3.33;;;16.00;54.40;;;;;;5026298;28;20238;-57
2020/12/06 08:41:06;;;;;;;3.30;3.00;;;16.00;54.40;;;;;;5017708;28;20214;-56
2020/12/06 08:43:52;;;;;;;6.20;3.30;;;16.00;54.40;;;;;;5027552;28;20225;-56
2020/12/06 08:46:23;;;;;;;4.10;3.70;;;16.00;54.40;;;;;;5019493;28;21634;-56
2020/12/06 08:48:52;;;;;;;4.60;3.77;;;16.00;54.30;;;;;;5026112;28;20316;-56
2020/12/06 08:51:25;;;;;;;3.80;3.50;;;16.00;54.30;;;;;;5017796;28;20221;-57
2020/12/06 08:53:52;;;;;;;7.63;4.07;;;15.90;54.20;;;;;;5026437;28;20619;-57
2020/12/06 08:56:40;;;;;;;7.33;4.03;;;15.90;54.40;;;;;;5014033;28;20221;-56
2020/12/06 08:59:15;;;;;;;10.97;4.30;;;16.00;54.50;;;;;;5017775;28;20226;-58
2020/12/06 09:01:55;;;;;;;9.87;4.40;;;16.00;54.70;;;;;;5019796;28;20692;-58
2020/12/06 09:04:22;;;;;;;12.37;5.40;;;16.00;54.90;;;;;;5018383;28;20588;-58
2020/12/06 09:06:50;;;;;;;8.27;4.63;;;16.00;55.40;;;;;;5017913;28;20226;-58
2020/12/06 09:09:16;;;;;;;7.83;4.60;;;16.00;54.60;;;;;;5026954;28;20238;-58
2020/12/06 09:11:42;;;;;;;13.87;5.10;;;16.00;54.40;;;;;;5019706;28;20227;-58
2020/12/06 09:14:09;;;;;;;6.93;3.90;;;16.00;54.40;;;;;;5024469;28;22209;-58
2020/12/06 09:16:39;;;;;;;6.40;4.33;;;16.00;54.30;;;;;;5016913;28;20271;-57
2020/12/06 09:19:05;;;;;;;8.90;4.70;;;16.00;54.20;;;;;;5026345;28;20597;-56
2020/12/06 09:21:31;;;;;;;8.03;5.60;;;16.00;54.10;;;;;;5019582;28;20226;-56
2020/12/06 09:23:57;;;;;;;6.63;5.10;;;16.00;53.90;;;;;;5034772;28;20274;-58
2020/12/06 09:26:24;;;;;;;5.90;4.73;;;16.00;53.90;;;;;;5020869;28;20237;-58
2020/12/06 09:28:50;;;;;;;6.83;5.23;;;16.00;53.80;;;;;;5030206;28;20678;-57
2020/12/06 09:31:20;;;;;;;6.37;5.10;;;16.00;53.80;;;;;;5021774;28;20288;-55
2020/12/06 09:33:47;;;;;;;9.13;5.67;;;16.00;53.80;;;;;;5028567;28;20583;-57
2020/12/06 09:36:13;;;;;;;6.87;5.47;;;16.00;53.70;;;;;;5029609;28;20706;-57
2020/12/06 09:38:39;;;;;;;7.20;4.80;;;16.00;53.80;;;;;;5020909;28;20265;-57
2020/12/06 09:41:14;;;;;;;8.30;5.43;;;16.00;53.90;;;;;;5030176;28;20766;-57
2020/12/06 09:43:42;;;;;;;8.97;5.27;;;16.00;54.10;;;;;;5020708;28;20222;-56
2020/12/06 09:46:14;;;;;;;5.60;4.83;;;16.00;54.20;;;;;;5029332;28;20219;-56
2020/12/06 09:48:42;;;;;;;6.53;4.97;;;16.00;54.20;;;;;;5021505;28;20230;-57
2020/12/06 09:51:09;;;;;;;7.80;5.73;;;16.00;54.40;;;;;;5031337;28;20231;-57
2020/12/06 09:53:35;;;;;;;6.07;4.70;;;16.00;54.70;;;;;;5006574;28;20235;-59
2020/12/06 09:56:02;;;;;;;7.83;4.57;;;16.00;54.50;;;;;;5006011;28;20664;-56
2020/12/06 09:58:28;;;;;;;7.47;4.40;;;16.00;54.50;;;;;;5008216;28;20706;-56
2020/12/06 10:00:55;;;;;;;5.47;4.50;;;16.00;54.40;;;;;;5023892;28;20301;-56
2020/12/06 10:03:21;;;;;;;9.80;4.47;;;16.00;54.40;;;;;;5018504;28;20219;-56
2020/12/06 10:05:48;;;;;;;5.93;4.30;;;16.00;54.20;;;;;;5027539;28;20305;-56
2020/12/06 10:08:14;;;;;;;5.83;4.47;;;16.00;54.30;;;;;;5021356;28;20223;-57
2020/12/06 10:10:40;;;;;;;6.77;4.33;;;16.00;54.40;;;;;;5028110;28;20211;-58
2020/12/06 10:13:06;;;;;;;5.73;4.50;;;16.00;54.40;;;;;;5023042;28;20223;-57
2020/12/06 10:15:33;;;;;;;4.33;3.93;;;16.00;54.30;;;;;;5026811;28;20226;-58
2020/12/06 10:17:59;;;;;;;9.33;4.40;;;16.00;54.40;;;;;;5029227;28;20223;-58
2020/12/06 10:20:25;;;;;;;7.93;4.97;;;16.00;54.70;;;;;;5021054;28;20325;-59
2020/12/06 10:22:51;;;;;;;20.47;4.80;;;16.10;54.80;;;;;;5028477;28;20234;-60
2020/12/06 10:25:17;;;;;;;21.33;5.57;;;16.10;55.20;;;;;;5020939;28;20222;-60
2020/12/06 10:27:44;;;;;;;16.63;5.50;;;16.10;55.30;;;;;;5030165;28;20253;-59
2020/12/06 10:30:10;;;;;;;11.60;5.80;;;16.10;55.80;;;;;;5020813;28;20230;-59
2020/12/06 10:32:37;;;;;;;8.93;4.83;;;16.10;56.20;;;;;;5027819;28;20227;-61
2020/12/06 10:35:03;;;;;;;9.93;4.60;;;16.10;56.70;;;;;;5018713;28;20238;-59
2020/12/06 10:37:30;;;;;;;7.70;4.83;;;16.10;56.20;;;;;;5030009;28;20273;-60
2020/12/06 10:39:56;;;;;;;7.77;4.80;;;16.10;56.00;;;;;;5019829;28;20716;-59
2020/12/06 10:42:22;;;;;;;8.73;4.17;;;16.10;55.90;;;;;;5027427;28;20801;-60
2020/12/06 10:44:49;;;;;;;8.67;4.60;;;16.10;55.80;;;;;;5019243;28;20757;-57
2020/12/06 10:47:18;;;;;;;6.57;4.73;;;16.00;56.40;;;;;;5026571;28;20218;-59
2020/12/06 10:49:45;;;;;;;7.77;4.77;;;16.10;56.90;;;;;;5014038;28;20300;-60
2020/12/06 10:52:12;;;;;;;7.73;4.23;;;16.00;56.70;;;;;;5025620;28;20333;-60
2020/12/06 10:54:39;;;;;;;6.17;4.43;;;16.10;56.50;;;;;;5025254;28;20738;-60
2020/12/06 10:57:05;;;;;;;6.77;4.57;;;16.00;56.30;;;;;;5018994;28;20799;-59
2020/12/06 10:59:33;;;;;;;5.40;4.33;;;16.10;56.40;;;;;;5008254;28;20714;-61
2020/12/06 11:01:59;;;;;;;6.00;3.47;;;16.10;56.40;;;;;;5007841;28;20244;-60
2020/12/06 11:04:25;;;;;;;7.47;4.47;;;16.00;56.30;;;;;;5025328;28;20653;-60
2020/12/06 11:06:52;;;;;;;7.47;3.90;;;16.00;56.40;;;;;;5017801;28;20231;-60
2020/12/06 11:09:19;;;;;;;5.60;4.00;;;16.10;56.60;;;;;;5026202;28;20319;-60
2020/12/06 11:11:49;;;;;;;5.87;3.93;;;16.10;56.20;;;;;;5017577;28;20218;-60
2020/12/06 11:14:17;;;;;;;5.20;3.90;;;16.00;56.00;;;;;;5027690;28;20226;-60
2020/12/06 11:16:43;;;;;;;4.30;3.90;;;16.10;56.40;;;;;;5019671;28;20239;-60
2020/12/06 11:19:10;;;;;;;5.07;3.83;;;16.10;56.20;;;;;;5015245;28;20242;-59
2020/12/06 11:21:36;;;;;;;5.17;4.07;;;16.00;56.20;;;;;;5012026;28;20285;-60
2020/12/06 11:24:02;;;;;;;4.70;4.00;;;16.00;56.30;;;;;;5021963;28;20276;-60
2020/12/06 11:26:28;;;;;;;6.70;4.03;;;16.00;56.20;;;;;;5016948;28;20769;-59
2020/12/06 11:28:56;;;;;;;4.60;3.70;;;16.10;56.50;;;;;;5027237;28;20225;-59
2020/12/06 11:31:22;;;;;;;6.10;4.17;;;16.10;56.10;;;;;;5018469;28;20273;-60
2020/12/06 11:33:48;;;;;;;5.83;3.80;;;16.10;56.20;;;;;;5030040;28;20675;-60
2020/12/06 11:36:14;;;;;;;5.20;3.60;;;16.10;56.20;;;;;;5013235;28;20704;-60
2020/12/06 11:38:42;;;;;;;5.20;3.60;;;16.00;56.30;;;;;;5011411;28;20314;-60
2020/12/06 11:41:09;;;;;;;4.50;4.07;;;16.10;56.40;;;;;;5005879;28;20270;-60
2020/12/06 11:43:36;;;;;;;4.37;3.97;;;16.10;56.20;;;;;;5017079;28;20632;-60
2020/12/06 11:46:02;;;;;;;4.80;3.83;;;16.10;56.40;;;;;;5020852;28;20234;-60
2020/12/06 11:48:28;;;;;;;4.00;3.50;;;16.10;56.40;;;;;;5018640;28;20225;-58
2020/12/06 11:50:55;;;;;;;5.07;3.90;;;16.10;56.20;;;;;;5024272;28;20223;-60
2020/12/06 11:53:22;;;;;;;5.20;3.73;;;16.10;56.30;;;;;;5012201;28;20299;-60
2020/12/06 11:55:48;;;;;;;3.63;3.27;;;16.10;56.30;;;;;;5025013;28;20237;-60
2020/12/06 11:58:14;;;;;;;4.43;4.03;;;16.10;56.40;;;;;;5016909;28;20260;-58
2020/12/06 12:00:41;;;;;;;4.47;3.67;;;16.00;56.30;;;;;;5024268;28;20235;-59
2020/12/06 12:03:07;;;;;;;4.53;4.13;;;16.10;56.40;;;;;;5003552;28;20223;-59
2020/12/06 12:05:33;;;;;;;4.20;3.40;;;16.10;56.40;;;;;;5006405;28;20266;-60
2020/12/06 12:07:59;;;;;;;5.27;4.63;;;16.10;56.50;;;;;;5008317;28;21835;-59
2020/12/06 12:10:26;;;;;;;4.77;3.90;;;16.10;57.20;;;;;;5026957;28;20227;-60
2020/12/06 12:12:52;;;;;;;6.60;4.03;;;16.10;57.10;;;;;;5016350;28;20419;-60
2020/12/06 12:15:18;;;;;;;5.73;3.90;;;16.10;56.70;;;;;;5019834;28;20222;-60
2020/12/06 12:17:45;;;;;;;5.70;4.10;;;16.10;56.60;;;;;;5023342;28;20249;-60
2020/12/06 12:20:11;;;;;;;6.03;4.80;;;16.10;56.60;;;;;;5012401;28;20232;-60
2020/12/06 12:22:37;;;;;;;4.10;3.70;;;16.10;56.60;;;;;;5012349;28;20234;-59
2020/12/06 12:25:04;;;;;;;4.13;3.73;;;16.10;56.60;;;;;;5018043;28;20230;-60
2020/12/06 12:27:31;;;;;;;4.57;4.17;;;16.10;56.50;;;;;;5017531;28;20235;-60
2020/12/06 12:29:57;;;;;;;5.63;3.87;;;16.10;56.70;;;;;;4999423;28;20234;-60
2020/12/06 12:32:24;;;;;;;4.50;4.00;;;16.10;56.60;;;;;;5028244;28;20230;-59
2020/12/06 12:34:50;;;;;;;5.10;4.47;;;16.10;56.50;;;;;;5016415;28;20691;-60
2020/12/06 12:37:17;;;;;;;5.00;4.17;;;16.10;56.50;;;;;;5026003;28;20702;-60
2020/12/06 12:39:43;;;;;;;4.47;3.90;;;16.10;56.60;;;;;;4991288;28;20341;-60
2020/12/06 12:42:11;;;;;;;4.43;4.03;;;16.10;56.60;;;;;;5020185;28;20634;-59
2020/12/06 12:44:37;;;;;;;5.30;4.27;;;16.10;56.60;;;;;;5018207;28;20233;-59
2020/12/06 12:47:04;;;;;;;4.47;4.03;;;16.10;56.70;;;;;;5026230;28;20237;-59
2020/12/06 12:49:30;;;;;;;4.70;4.00;;;16.10;56.70;;;;;;5015842;28;20237;-59